createdAt,value
2023-02-27T00:04:55.858Z,20.70
2023-02-27T00:09:59.983Z,21.65
2023-02-27T00:15:04.330Z,22.13
2023-02-27T00:20:12.855Z,20.77
2023-02-27T00:25:17.369Z,18.17
2023-02-27T00:30:21.701Z,16.10
2023-02-27T00:35:25.921Z,20.52
2023-02-27T00:40:30.389Z,22.33
2023-02-27T00:45:34.825Z,20.70
2023-02-27T00:50:39.785Z,23.20
2023-02-27T00:55:44.628Z,21.95
2023-02-27T01:00:48.885Z,20.40
2023-02-27T01:05:53.788Z,16.50
2023-02-27T01:10:58.159Z,19.25
2023-02-27T01:16:01.194Z,22.77
2023-02-27T01:21:06.358Z,18.23
2023-02-27T01:31:15.728Z,21.88
2023-02-27T01:36:19.679Z,17.75
2023-02-27T01:41:25.746Z,21.52
2023-02-27T01:46:33.131Z,20.58
2023-02-27T01:51:42.621Z,17.05
2023-02-27T01:56:47.025Z,19.65
2023-02-27T02:01:52.493Z,21.48
2023-02-27T02:07:02.197Z,21.77
2023-02-27T02:12:07.358Z,21.88
2023-02-27T03:06:22.426Z,19.58
2023-02-27T03:11:31.376Z,20.20
2023-02-27T03:16:42.939Z,16.83
2023-02-27T03:21:52.818Z,20.98
2023-02-27T03:27:04.120Z,18.52
2023-02-27T03:32:18.848Z,20.52
2023-02-27T03:37:48.400Z,18.35
2023-02-27T03:48:44.903Z,20.25
2023-02-27T03:59:10.086Z,19.27
2023-02-27T04:04:20.288Z,16.17
2023-02-27T04:21:06.944Z,22.37
2023-02-27T04:36:58.558Z,17.23
2023-02-27T04:42:08.870Z,16.13
2023-02-27T04:47:15.406Z,19.55
2023-02-27T04:52:25.285Z,13.88
2023-02-27T04:57:38.546Z,17.52
2023-02-27T05:02:50.190Z,13.38
2023-02-27T05:08:00.959Z,14.25
2023-02-27T05:13:11.191Z,13.40
2023-02-27T05:18:19.038Z,16.98
2023-02-27T05:34:19.262Z,15.98
2023-02-27T05:39:26.398Z,16.17
2023-02-27T05:44:35.199Z,12.90
2023-02-27T05:49:50.831Z,15.73
2023-02-27T05:56:00.686Z,15.13
2023-02-27T06:01:23.388Z,15.30
2023-02-27T06:13:58.846Z,12.93
2023-02-27T06:19:20.804Z,15.45
2023-02-27T06:24:39.936Z,13.25
2023-02-27T06:29:54.585Z,12.30
2023-02-27T06:35:13.929Z,13.07
2023-02-27T06:40:19.471Z,14.75
2023-02-27T06:45:24.516Z,14.77
2023-02-27T06:50:28.883Z,13.15
2023-02-27T07:00:40.402Z,12.40
2023-02-27T07:05:54.486Z,12.13
2023-02-27T07:10:57.606Z,13.27
2023-02-27T07:16:25.896Z,11.23
2023-02-27T07:22:27.097Z,16.67
2023-02-27T07:27:54.933Z,14.32
2023-02-27T07:33:31.323Z,13.90
2023-02-27T07:45:45.312Z,13.98
2023-02-27T07:51:25.132Z,16.63
2023-02-27T07:56:41.164Z,14.68
2023-02-27T08:01:44.137Z,16.27
2023-02-27T08:06:47.982Z,16.15
2023-02-27T08:11:50.796Z,13.68
2023-02-27T08:16:53.731Z,16.35
2023-02-27T08:21:59.559Z,13.20
2023-02-27T08:27:02.449Z,16.90
2023-02-27T08:32:05.973Z,20.05
2023-02-27T08:37:09.429Z,17.15
2023-02-27T08:42:12.251Z,16.38
2023-02-27T08:47:15.052Z,15.77
2023-02-27T08:52:17.945Z,17.33
2023-02-27T08:57:20.864Z,15.07
2023-02-27T09:02:27.157Z,20.25
2023-02-27T09:07:36.171Z,17.70
2023-02-27T09:12:39.549Z,19.13
2023-02-27T09:17:42.475Z,18.65
2023-02-27T09:22:51.854Z,17.50
2023-02-27T09:28:22.010Z,20.05
2023-02-27T09:33:29.164Z,21.90
2023-02-27T09:38:34.017Z,15.88
2023-02-27T09:43:46.012Z,21.25
2023-02-27T09:49:00.238Z,21.75
2023-02-27T09:54:05.053Z,23.75
2023-02-27T10:15:27.861Z,19.38
2023-02-27T10:20:34.969Z,19.20
2023-02-27T10:25:46.052Z,17.35
2023-02-27T10:30:55.440Z,20.58
2023-02-27T10:36:00.315Z,19.27
2023-02-27T10:41:07.933Z,17.63
2023-02-27T10:46:19.396Z,18.25
2023-02-27T10:56:39.578Z,21.52
2023-02-27T11:01:46.095Z,21.30
2023-02-27T11:06:54.096Z,19.00
2023-02-27T11:12:12.098Z,19.30
2023-02-27T11:17:27.029Z,18.10
2023-02-27T11:22:31.680Z,19.10
2023-02-27T11:34:36.841Z,19.67
2023-02-27T11:39:53.151Z,20.30
2023-02-27T11:45:01.522Z,20.95
2023-02-27T11:50:34.371Z,23.08
2023-02-27T11:55:39.099Z,19.65
2023-02-27T12:00:49.599Z,20.77
2023-02-27T12:05:57.665Z,18.42
2023-02-27T12:11:14.774Z,17.33
2023-02-27T12:21:40.764Z,23.90
2023-02-27T12:26:46.978Z,23.23
2023-02-27T12:32:00.782Z,20.20
2023-02-27T12:37:10.620Z,18.58
2023-02-27T12:42:39.463Z,19.48
2023-02-27T13:04:34.193Z,18.98
2023-02-27T13:10:01.374Z,24.23
2023-02-27T13:25:38.999Z,25.45
2023-02-27T13:30:49.373Z,25.58
2023-02-27T13:46:38.143Z,30.35
2023-02-27T14:07:26.245Z,18.02
2023-02-27T14:12:44.024Z,20.73
2023-02-27T14:17:50.971Z,20.88
2023-02-27T14:33:50.667Z,31.38
2023-02-27T14:38:58.789Z,24.55
2023-02-27T14:44:02.183Z,24.23
2023-02-27T14:54:33.268Z,25.27
2023-02-27T14:59:46.240Z,24.13
2023-02-27T15:04:56.364Z,25.50
2023-02-27T15:10:04.607Z,27.33
2023-02-27T15:15:10.705Z,21.77
2023-02-27T15:25:39.326Z,24.50
2023-02-27T15:30:42.467Z,23.08
2023-02-27T15:35:46.890Z,28.65
2023-02-27T15:45:53.597Z,20.95
2023-02-27T15:51:01.226Z,17.20
2023-02-27T15:56:09.934Z,20.20
2023-02-27T16:01:19.528Z,20.13
2023-02-27T16:06:27.817Z,21.42
2023-02-27T16:16:39.088Z,23.73
2023-02-27T16:22:04.818Z,28.13
2023-02-27T16:27:16.327Z,21.02
2023-02-27T16:32:29.755Z,18.75
2023-02-27T16:37:37.606Z,28.67
2023-02-27T16:42:41.155Z,21.98
2023-02-27T16:47:44.377Z,23.40
2023-02-27T16:52:47.186Z,22.45
2023-02-27T16:57:50.055Z,25.60
2023-02-27T17:02:52.936Z,19.98
2023-02-27T17:07:55.952Z,20.25
2023-02-27T17:12:59.807Z,21.63
2023-02-27T17:18:02.894Z,23.27
2023-02-27T17:23:05.694Z,20.60
2023-02-27T17:28:09.075Z,25.88
2023-02-27T17:33:11.974Z,25.67
2023-02-27T17:38:17.782Z,20.58
2023-02-27T17:43:20.829Z,21.48
2023-02-27T17:48:24.001Z,16.67
2023-02-27T17:53:26.709Z,24.10
2023-02-27T17:58:29.846Z,22.38
2023-02-27T18:03:33.521Z,21.13
2023-02-27T18:08:36.731Z,19.55
2023-02-27T18:13:40.504Z,22.58
2023-02-27T18:18:44.078Z,20.90
2023-02-27T18:23:50.967Z,18.63
2023-02-27T18:28:54.314Z,21.05
2023-02-27T18:34:00.149Z,22.25
2023-02-27T18:39:05.278Z,18.08
2023-02-27T18:44:09.279Z,19.25
2023-02-27T18:49:12.188Z,19.17
2023-02-27T18:54:15.392Z,20.80
2023-02-27T18:59:18.597Z,23.98
2023-02-27T19:04:21.563Z,22.27
2023-02-27T19:09:30.890Z,27.23
2023-02-27T19:14:37.084Z,26.63
2023-02-27T19:19:40.051Z,25.20
2023-02-27T19:24:43.027Z,26.73
2023-02-27T19:29:45.915Z,22.73
2023-02-27T19:34:49.002Z,25.20
2023-02-27T19:39:52.963Z,24.30
2023-02-27T19:44:56.227Z,21.77
2023-02-27T19:49:59.230Z,25.05
2023-02-27T19:55:03.863Z,24.67
2023-02-27T20:00:08.674Z,23.30
2023-02-27T20:05:19.453Z,22.52
2023-02-27T20:10:22.287Z,22.83
2023-02-27T20:15:25.433Z,24.75
2023-02-27T20:20:29.660Z,25.98
2023-02-27T20:25:33.929Z,32.00
2023-02-27T20:30:36.804Z,29.05
2023-02-27T20:35:40.390Z,35.30
2023-02-27T20:40:43.324Z,32.67
2023-02-27T20:45:46.675Z,31.67
2023-02-27T20:50:49.503Z,30.52
2023-02-27T20:55:52.369Z,30.95
2023-02-27T21:00:55.339Z,32.83
2023-02-27T21:06:00.027Z,33.63
2023-02-27T21:16:23.115Z,33.35
2023-02-27T21:21:30.988Z,34.88
2023-02-27T21:26:38.348Z,31.67
2023-02-27T21:31:45.274Z,32.83
2023-02-27T21:36:50.109Z,40.30
2023-02-27T21:41:54.088Z,40.08
2023-02-27T21:46:57.029Z,42.67
2023-02-27T21:51:59.890Z,45.47
2023-02-27T21:57:03.513Z,55.85
2023-02-27T22:02:07.549Z,56.85
2023-02-27T22:07:11.502Z,52.75
2023-02-27T22:12:16.166Z,54.17
2023-02-27T22:17:19.102Z,56.92
2023-02-27T22:22:22.123Z,56.13
2023-02-27T22:27:25.097Z,58.58
2023-02-27T22:32:28.907Z,56.67
2023-02-27T22:37:31.872Z,64.78
2023-02-27T22:42:34.759Z,61.35
2023-02-27T22:47:37.879Z,62.53
2023-02-27T22:52:40.821Z,59.60
2023-02-27T22:57:43.701Z,52.33
2023-02-27T23:02:46.828Z,48.05
2023-02-27T23:07:49.683Z,44.20
2023-02-27T23:12:52.717Z,47.33
2023-02-27T23:17:58.514Z,44.28
2023-02-27T23:23:01.729Z,44.85
2023-02-27T23:28:06.651Z,42.20
2023-02-27T23:38:12.461Z,40.75
2023-02-27T23:43:15.844Z,41.38
2023-02-27T23:48:22.003Z,41.83
2023-02-27T23:53:24.816Z,47.50
2023-02-27T23:58:27.867Z,46.50
